Galena, Nevada Weather observations

Data are for 60 minute period ending nearest time listed.
 Day   Time    Ave.   Ave.  Ave.  Vector   Max.   Total    Solar   
  of    of     Air    Rel.  Wind   Wind    Wind  Precip.   Rad.    
Year   Day     Temp.  Hum.  Speed  Dir.    Gust                    
2026   (PST)    F      %     mph   deg.    mph     in.     W/m2    
------------------------------------------------------------------- 
 129   12:00   74.0    18    4.0   146     14.0    1.16     956  
 129   13:00   75.0    16    4.0   293     12.0    1.16     962  
 129   14:00   77.0    13    4.0    50     14.0    1.16     912  
 129   15:00   78.0    12    7.0    83     15.0    1.16     806  
 129   16:00   79.0    11    3.0   177     13.0    1.16     658  
 129   17:00   78.0    10    5.0    48     10.0    1.16     472  
 129   18:00   76.0    11    3.0    39      8.0    1.16      82  
 129   19:00   67.0    16    6.0   305     10.0    1.16      24  
 129   20:00   64.0    17    5.0   297     11.0    1.16       2  
 129   21:00   64.0    15    6.0   300     10.0    1.16       0  
 129   22:00   60.0    20    5.0   251     10.0    1.16       0  
 129   23:00   58.0    22    4.0   242      9.0    1.16       0  
 130    0:00   58.0    20    4.0   283      8.0    1.16       0  
 130    1:00   59.0    19    3.0   244      9.0    1.16       0  
 130    2:00   55.0    24    4.0   228      6.0    1.16       0  
 130    3:00   55.0    23    4.0   260      6.0    1.16       0  
 130    4:00   55.0    23    3.0   241      6.0    1.16       0  
 130    5:00   55.0    23    4.0   235      7.0    1.16       0  
 130    6:00   58.0    28    3.0   212      6.0    1.16      56  
 130    7:00   63.0    27    4.0   173      6.0    1.16     237  
 130    8:00   67.0    25    7.0   150     12.0    1.16     438  
 130    9:00   71.0    22    7.0   145     12.0    1.16     626  
 130   10:00   76.0    15    7.0   141     13.0    1.16     785  
 130   11:00   79.0    12   10.0   145     14.0    1.16     900  

Return to Galena, Nevada graphs page.


Western Regional Climate Center,wrcc@dri.edu